sensor_id;sensor_type;location;lat;lon;timestamp;P1;durP1;ratioP1;P2;durP2;ratioP2
67074;SDS011;53990;50.334;18.640;2023-05-10T00:01:58;12.30;;;7.40;;
67074;SDS011;53990;50.334;18.640;2023-05-10T00:04:25;12.60;;;6.90;;
67074;SDS011;53990;50.334;18.640;2023-05-10T00:06:54;9.50;;;6.70;;
67074;SDS011;53990;50.334;18.640;2023-05-10T00:09:21;12.90;;;6.80;;
67074;SDS011;53990;50.334;18.640;2023-05-10T00:11:47;11.10;;;6.90;;
67074;SDS011;53990;50.334;18.640;2023-05-10T00:14:14;12.10;;;7.00;;
67074;SDS011;53990;50.334;18.640;2023-05-10T00:16:41;10.10;;;6.40;;
67074;SDS011;53990;50.334;18.640;2023-05-10T00:19:08;12.40;;;6.90;;
67074;SDS011;53990;50.334;18.640;2023-05-10T00:21:35;9.30;;;6.30;;
67074;SDS011;53990;50.334;18.640;2023-05-10T00:24:02;13.20;;;7.10;;
67074;SDS011;53990;50.334;18.640;2023-05-10T00:26:28;11.90;;;7.10;;
67074;SDS011;53990;50.334;18.640;2023-05-10T00:28:55;9.50;;;6.70;;
67074;SDS011;53990;50.334;18.640;2023-05-10T00:31:23;11.80;;;6.80;;
67074;SDS011;53990;50.334;18.640;2023-05-10T00:33:49;11.40;;;6.50;;
67074;SDS011;53990;50.334;18.640;2023-05-10T00:36:16;10.50;;;6.90;;
67074;SDS011;53990;50.334;18.640;2023-05-10T00:38:43;11.20;;;6.50;;
67074;SDS011;53990;50.334;18.640;2023-05-10T00:41:10;10.50;;;7.10;;
67074;SDS011;53990;50.334;18.640;2023-05-10T00:43:37;10.40;;;6.90;;
67074;SDS011;53990;50.334;18.640;2023-05-10T00:46:04;12.40;;;7.10;;
67074;SDS011;53990;50.334;18.640;2023-05-10T00:48:31;12.30;;;7.20;;
67074;SDS011;53990;50.334;18.640;2023-05-10T00:50:58;12.40;;;7.50;;
67074;SDS011;53990;50.334;18.640;2023-05-10T00:53:25;11.30;;;7.10;;
67074;SDS011;53990;50.334;18.640;2023-05-10T00:55:52;11.60;;;7.30;;
67074;SDS011;53990;50.334;18.640;2023-05-10T00:58:19;13.00;;;7.60;;
67074;SDS011;53990;50.334;18.640;2023-05-10T01:00:46;13.80;;;7.40;;
67074;SDS011;53990;50.334;18.640;2023-05-10T01:03:14;13.80;;;7.40;;
67074;SDS011;53990;50.334;18.640;2023-05-10T01:05:41;14.20;;;7.70;;
67074;SDS011;53990;50.334;18.640;2023-05-10T01:08:08;10.90;;;7.50;;
67074;SDS011;53990;50.334;18.640;2023-05-10T01:10:35;13.20;;;7.50;;
67074;SDS011;53990;50.334;18.640;2023-05-10T01:13:02;11.70;;;7.30;;
67074;SDS011;53990;50.334;18.640;2023-05-10T01:15:30;10.90;;;6.90;;
67074;SDS011;53990;50.334;18.640;2023-05-10T01:17:58;11.70;;;6.90;;
67074;SDS011;53990;50.334;18.640;2023-05-10T01:20:29;13.60;;;7.40;;
67074;SDS011;53990;50.334;18.640;2023-05-10T01:25:49;11.80;;;7.10;;
67074;SDS011;53990;50.334;18.640;2023-05-10T01:28:51;13.50;;;6.90;;
67074;SDS011;53990;50.334;18.640;2023-05-10T01:34:16;10.80;;;7.20;;
67074;SDS011;53990;50.334;18.640;2023-05-10T01:36:51;13.70;;;6.90;;
67074;SDS011;53990;50.334;18.640;2023-05-10T01:39:24;12.60;;;7.40;;
67074;SDS011;53990;50.334;18.640;2023-05-10T01:42:01;11.70;;;6.90;;
67074;SDS011;53990;50.334;18.640;2023-05-10T01:44:51;12.70;;;7.10;;
67074;SDS011;53990;50.334;18.640;2023-05-10T01:47:27;12.10;;;7.30;;
67074;SDS011;53990;50.334;18.640;2023-05-10T01:50:02;12.20;;;7.60;;
67074;SDS011;53990;50.334;18.640;2023-05-10T01:52:38;11.80;;;7.20;;
67074;SDS011;53990;50.334;18.640;2023-05-10T01:55:16;11.00;;;7.00;;
67074;SDS011;53990;50.334;18.640;2023-05-10T01:57:46;13.00;;;7.40;;
67074;SDS011;53990;50.334;18.640;2023-05-10T02:00:14;13.00;;;7.80;;
67074;SDS011;53990;50.334;18.640;2023-05-10T02:02:46;11.80;;;7.50;;
67074;SDS011;53990;50.334;18.640;2023-05-10T02:05:15;11.40;;;7.30;;
67074;SDS011;53990;50.334;18.640;2023-05-10T02:07:43;11.80;;;7.30;;
67074;SDS011;53990;50.334;18.640;2023-05-10T02:10:10;14.20;;;7.50;;
67074;SDS011;53990;50.334;18.640;2023-05-10T02:12:41;12.60;;;8.10;;
67074;SDS011;53990;50.334;18.640;2023-05-10T02:15:10;10.60;;;7.20;;
67074;SDS011;53990;50.334;18.640;2023-05-10T02:17:38;12.00;;;7.10;;
67074;SDS011;53990;50.334;18.640;2023-05-10T02:20:06;13.90;;;7.80;;
67074;SDS011;53990;50.334;18.640;2023-05-10T02:22:35;12.30;;;8.40;;
67074;SDS011;53990;50.334;18.640;2023-05-10T02:25:04;14.10;;;7.70;;
67074;SDS011;53990;50.334;18.640;2023-05-10T02:27:31;15.10;;;8.10;;
67074;SDS011;53990;50.334;18.640;2023-05-10T02:29:58;11.70;;;8.00;;
67074;SDS011;53990;50.334;18.640;2023-05-10T02:32:27;12.40;;;7.80;;
67074;SDS011;53990;50.334;18.640;2023-05-10T02:34:54;14.60;;;8.50;;
67074;SDS011;53990;50.334;18.640;2023-05-10T02:37:21;12.70;;;7.60;;
67074;SDS011;53990;50.334;18.640;2023-05-10T02:39:49;16.30;;;8.40;;
67074;SDS011;53990;50.334;18.640;2023-05-10T02:42:18;15.70;;;8.60;;
67074;SDS011;53990;50.334;18.640;2023-05-10T02:44:47;13.20;;;8.10;;
67074;SDS011;53990;50.334;18.640;2023-05-10T02:47:15;13.10;;;8.00;;
67074;SDS011;53990;50.334;18.640;2023-05-10T02:49:42;14.10;;;8.30;;
67074;SDS011;53990;50.334;18.640;2023-05-10T02:52:09;13.10;;;8.70;;
67074;SDS011;53990;50.334;18.640;2023-05-10T02:54:42;17.20;;;8.80;;
67074;SDS011;53990;50.334;18.640;2023-05-10T02:57:15;13.10;;;8.40;;
67074;SDS011;53990;50.334;18.640;2023-05-10T02:59:45;14.10;;;9.10;;
67074;SDS011;53990;50.334;18.640;2023-05-10T03:02:12;13.00;;;8.70;;
67074;SDS011;53990;50.334;18.640;2023-05-10T03:04:39;14.70;;;9.10;;
67074;SDS011;53990;50.334;18.640;2023-05-10T03:07:06;16.60;;;9.20;;
67074;SDS011;53990;50.334;18.640;2023-05-10T03:09:33;14.00;;;8.90;;
67074;SDS011;53990;50.334;18.640;2023-05-10T03:17:29;15.50;;;9.60;;
67074;SDS011;53990;50.334;18.640;2023-05-10T03:19:58;14.50;;;8.90;;
67074;SDS011;53990;50.334;18.640;2023-05-10T03:22:49;14.20;;;9.20;;
67074;SDS011;53990;50.334;18.640;2023-05-10T03:25:16;14.60;;;9.40;;
67074;SDS011;53990;50.334;18.640;2023-05-10T03:27:44;16.30;;;9.70;;
67074;SDS011;53990;50.334;18.640;2023-05-10T03:30:12;16.40;;;9.40;;
67074;SDS011;53990;50.334;18.640;2023-05-10T03:32:40;14.40;;;9.00;;
67074;SDS011;53990;50.334;18.640;2023-05-10T03:35:10;15.20;;;9.40;;
67074;SDS011;53990;50.334;18.640;2023-05-10T03:37:38;16.20;;;9.90;;
67074;SDS011;53990;50.334;18.640;2023-05-10T03:40:06;15.10;;;9.60;;
67074;SDS011;53990;50.334;18.640;2023-05-10T03:42:33;17.40;;;9.70;;
67074;SDS011;53990;50.334;18.640;2023-05-10T03:45:00;16.90;;;9.40;;
67074;SDS011;53990;50.334;18.640;2023-05-10T03:47:27;17.20;;;9.10;;
67074;SDS011;53990;50.334;18.640;2023-05-10T03:49:54;15.90;;;10.30;;
67074;SDS011;53990;50.334;18.640;2023-05-10T03:52:20;18.20;;;9.70;;
67074;SDS011;53990;50.334;18.640;2023-05-10T03:54:47;17.70;;;9.50;;
67074;SDS011;53990;50.334;18.640;2023-05-10T03:57:14;17.40;;;9.60;;
67074;SDS011;53990;50.334;18.640;2023-05-10T03:59:41;14.60;;;10.00;;
67074;SDS011;53990;50.334;18.640;2023-05-10T04:02:07;17.50;;;10.30;;
67074;SDS011;53990;50.334;18.640;2023-05-10T04:04:34;17.50;;;10.30;;
67074;SDS011;53990;50.334;18.640;2023-05-10T04:07:01;16.70;;;9.60;;
67074;SDS011;53990;50.334;18.640;2023-05-10T04:09:28;15.50;;;9.70;;
67074;SDS011;53990;50.334;18.640;2023-05-10T04:11:54;17.60;;;10.20;;
67074;SDS011;53990;50.334;18.640;2023-05-10T04:14:21;15.80;;;9.70;;
67074;SDS011;53990;50.334;18.640;2023-05-10T04:16:48;18.80;;;10.30;;
67074;SDS011;53990;50.334;18.640;2023-05-10T04:19:15;14.60;;;9.40;;
67074;SDS011;53990;50.334;18.640;2023-05-10T04:21:41;15.60;;;10.20;;
67074;SDS011;53990;50.334;18.640;2023-05-10T04:24:08;15.50;;;9.90;;
67074;SDS011;53990;50.334;18.640;2023-05-10T04:26:35;15.50;;;10.00;;
67074;SDS011;53990;50.334;18.640;2023-05-10T04:29:02;16.90;;;9.70;;
67074;SDS011;53990;50.334;18.640;2023-05-10T04:31:28;15.60;;;9.30;;
67074;SDS011;53990;50.334;18.640;2023-05-10T04:33:55;18.60;;;10.30;;
67074;SDS011;53990;50.334;18.640;2023-05-10T04:36:22;17.90;;;9.30;;
67074;SDS011;53990;50.334;18.640;2023-05-10T04:38:49;16.80;;;9.90;;
67074;SDS011;53990;50.334;18.640;2023-05-10T04:41:16;17.60;;;9.90;;
67074;SDS011;53990;50.334;18.640;2023-05-10T04:43:42;15.70;;;9.30;;
67074;SDS011;53990;50.334;18.640;2023-05-10T04:46:09;16.70;;;10.00;;
67074;SDS011;53990;50.334;18.640;2023-05-10T04:48:36;18.90;;;9.70;;
67074;SDS011;53990;50.334;18.640;2023-05-10T04:51:03;16.20;;;9.00;;
67074;SDS011;53990;50.334;18.640;2023-05-10T04:53:30;13.70;;;8.70;;
67074;SDS011;53990;50.334;18.640;2023-05-10T04:55:57;13.50;;;9.00;;
67074;SDS011;53990;50.334;18.640;2023-05-10T04:58:23;18.00;;;9.30;;
67074;SDS011;53990;50.334;18.640;2023-05-10T05:00:50;18.70;;;9.80;;
67074;SDS011;53990;50.334;18.640;2023-05-10T05:03:17;15.70;;;9.30;;
67074;SDS011;53990;50.334;18.640;2023-05-10T05:05:44;13.90;;;9.20;;
67074;SDS011;53990;50.334;18.640;2023-05-10T05:08:11;14.30;;;8.90;;
67074;SDS011;53990;50.334;18.640;2023-05-10T05:10:38;16.70;;;9.70;;
67074;SDS011;53990;50.334;18.640;2023-05-10T05:13:04;15.90;;;8.20;;
67074;SDS011;53990;50.334;18.640;2023-05-10T05:15:32;13.40;;;8.30;;
67074;SDS011;53990;50.334;18.640;2023-05-10T05:17:58;13.70;;;7.80;;
67074;SDS011;53990;50.334;18.640;2023-05-10T05:20:25;15.50;;;8.40;;
67074;SDS011;53990;50.334;18.640;2023-05-10T05:22:52;11.40;;;7.60;;
67074;SDS011;53990;50.334;18.640;2023-05-10T05:25:19;12.20;;;7.40;;
67074;SDS011;53990;50.334;18.640;2023-05-10T05:27:46;10.90;;;7.30;;
67074;SDS011;53990;50.334;18.640;2023-05-10T05:30:13;12.50;;;6.80;;
67074;SDS011;53990;50.334;18.640;2023-05-10T05:32:39;10.30;;;6.80;;
67074;SDS011;53990;50.334;18.640;2023-05-10T05:35:10;12.90;;;6.70;;
67074;SDS011;53990;50.334;18.640;2023-05-10T05:37:37;12.20;;;6.70;;
67074;SDS011;53990;50.334;18.640;2023-05-10T05:40:08;16.80;;;8.40;;
67074;SDS011;53990;50.334;18.640;2023-05-10T05:42:35;9.90;;;6.60;;
67074;SDS011;53990;50.334;18.640;2023-05-10T05:45:02;10.20;;;6.50;;
67074;SDS011;53990;50.334;18.640;2023-05-10T05:47:29;11.60;;;6.60;;
67074;SDS011;53990;50.334;18.640;2023-05-10T05:49:55;9.50;;;6.10;;
67074;SDS011;53990;50.334;18.640;2023-05-10T05:52:22;9.40;;;6.20;;
67074;SDS011;53990;50.334;18.640;2023-05-10T05:54:50;10.60;;;6.40;;
67074;SDS011;53990;50.334;18.640;2023-05-10T05:57:17;9.30;;;6.10;;
67074;SDS011;53990;50.334;18.640;2023-05-10T05:59:43;12.30;;;7.30;;
67074;SDS011;53990;50.334;18.640;2023-05-10T06:02:11;10.60;;;5.80;;
67074;SDS011;53990;50.334;18.640;2023-05-10T06:04:38;8.50;;;5.30;;
67074;SDS011;53990;50.334;18.640;2023-05-10T06:07:05;12.10;;;5.60;;
67074;SDS011;53990;50.334;18.640;2023-05-10T06:09:33;10.70;;;5.70;;
67074;SDS011;53990;50.334;18.640;2023-05-10T06:12:01;9.50;;;5.90;;
67074;SDS011;53990;50.334;18.640;2023-05-10T06:14:29;9.50;;;5.20;;
67074;SDS011;53990;50.334;18.640;2023-05-10T06:16:56;8.50;;;5.60;;
67074;SDS011;53990;50.334;18.640;2023-05-10T06:19:23;10.90;;;5.40;;
67074;SDS011;53990;50.334;18.640;2023-05-10T06:21:50;10.00;;;5.00;;
67074;SDS011;53990;50.334;18.640;2023-05-10T06:24:17;8.40;;;5.60;;
67074;SDS011;53990;50.334;18.640;2023-05-10T06:26:44;8.40;;;5.50;;
67074;SDS011;53990;50.334;18.640;2023-05-10T06:29:11;7.90;;;5.10;;
67074;SDS011;53990;50.334;18.640;2023-05-10T06:31:38;12.80;;;7.20;;
67074;SDS011;53990;50.334;18.640;2023-05-10T06:34:06;10.00;;;5.40;;
67074;SDS011;53990;50.334;18.640;2023-05-10T06:36:34;8.20;;;5.50;;
67074;SDS011;53990;50.334;18.640;2023-05-10T06:39:01;9.80;;;5.30;;
67074;SDS011;53990;50.334;18.640;2023-05-10T06:41:29;9.60;;;5.50;;
67074;SDS011;53990;50.334;18.640;2023-05-10T06:43:56;10.20;;;5.80;;
67074;SDS011;53990;50.334;18.640;2023-05-10T06:46:23;8.10;;;4.90;;
67074;SDS011;53990;50.334;18.640;2023-05-10T06:48:50;8.80;;;5.00;;
67074;SDS011;53990;50.334;18.640;2023-05-10T06:51:17;7.20;;;4.50;;
67074;SDS011;53990;50.334;18.640;2023-05-10T06:53:44;8.00;;;4.30;;
67074;SDS011;53990;50.334;18.640;2023-05-10T06:56:11;6.70;;;4.40;;
67074;SDS011;53990;50.334;18.640;2023-05-10T06:58:38;7.90;;;4.30;;
67074;SDS011;53990;50.334;18.640;2023-05-10T07:01:05;9.30;;;4.80;;
67074;SDS011;53990;50.334;18.640;2023-05-10T07:03:32;8.60;;;4.70;;
67074;SDS011;53990;50.334;18.640;2023-05-10T07:06:03;8.40;;;4.40;;
67074;SDS011;53990;50.334;18.640;2023-05-10T07:08:30;7.10;;;4.70;;
67074;SDS011;53990;50.334;18.640;2023-05-10T07:13:28;7.20;;;4.10;;
67074;SDS011;53990;50.334;18.640;2023-05-10T07:15:55;6.50;;;4.10;;
67074;SDS011;53990;50.334;18.640;2023-05-10T07:18:22;6.60;;;4.10;;
67074;SDS011;53990;50.334;18.640;2023-05-10T07:20:49;8.50;;;4.10;;
67074;SDS011;53990;50.334;18.640;2023-05-10T07:23:16;7.10;;;4.80;;
67074;SDS011;53990;50.334;18.640;2023-05-10T07:25:50;6.20;;;3.80;;
67074;SDS011;53990;50.334;18.640;2023-05-10T07:28:19;6.60;;;3.90;;
67074;SDS011;53990;50.334;18.640;2023-05-10T07:30:46;6.80;;;3.70;;
67074;SDS011;53990;50.334;18.640;2023-05-10T07:33:14;6.70;;;3.30;;
67074;SDS011;53990;50.334;18.640;2023-05-10T07:35:42;5.40;;;3.70;;
67074;SDS011;53990;50.334;18.640;2023-05-10T07:38:09;5.10;;;3.10;;
67074;SDS011;53990;50.334;18.640;2023-05-10T07:40:39;4.20;;;2.90;;
67074;SDS011;53990;50.334;18.640;2023-05-10T07:43:06;4.70;;;3.10;;
67074;SDS011;53990;50.334;18.640;2023-05-10T07:45:33;4.90;;;3.20;;
67074;SDS011;53990;50.334;18.640;2023-05-10T07:48:00;5.90;;;3.70;;
67074;SDS011;53990;50.334;18.640;2023-05-10T07:50:27;5.00;;;3.10;;
67074;SDS011;53990;50.334;18.640;2023-05-10T07:52:54;5.30;;;3.50;;
67074;SDS011;53990;50.334;18.640;2023-05-10T07:55:21;7.40;;;3.40;;
67074;SDS011;53990;50.334;18.640;2023-05-10T07:57:48;5.60;;;3.50;;
67074;SDS011;53990;50.334;18.640;2023-05-10T08:00:19;7.40;;;3.20;;
67074;SDS011;53990;50.334;18.640;2023-05-10T08:02:47;6.90;;;3.20;;
67074;SDS011;53990;50.334;18.640;2023-05-10T08:05:14;7.00;;;4.00;;
67074;SDS011;53990;50.334;18.640;2023-05-10T08:07:41;6.00;;;3.80;;
67074;SDS011;53990;50.334;18.640;2023-05-10T08:10:09;5.50;;;3.20;;
67074;SDS011;53990;50.334;18.640;2023-05-10T08:12:37;8.00;;;3.00;;
67074;SDS011;53990;50.334;18.640;2023-05-10T08:15:05;8.20;;;3.70;;
67074;SDS011;53990;50.334;18.640;2023-05-10T08:17:32;6.50;;;3.60;;
67074;SDS011;53990;50.334;18.640;2023-05-10T08:19:58;4.80;;;3.20;;
67074;SDS011;53990;50.334;18.640;2023-05-10T08:22:25;4.30;;;3.00;;
67074;SDS011;53990;50.334;18.640;2023-05-10T08:24:52;6.60;;;3.00;;
67074;SDS011;53990;50.334;18.640;2023-05-10T08:27:19;7.20;;;3.90;;
67074;SDS011;53990;50.334;18.640;2023-05-10T08:29:45;9.10;;;5.30;;
67074;SDS011;53990;50.334;18.640;2023-05-10T08:32:12;4.70;;;3.20;;
67074;SDS011;53990;50.334;18.640;2023-05-10T08:34:39;6.40;;;3.50;;
67074;SDS011;53990;50.334;18.640;2023-05-10T08:37:06;4.40;;;3.10;;
67074;SDS011;53990;50.334;18.640;2023-05-10T08:39:35;7.00;;;3.10;;
67074;SDS011;53990;50.334;18.640;2023-05-10T08:42:04;6.70;;;3.40;;
67074;SDS011;53990;50.334;18.640;2023-05-10T08:44:35;6.80;;;3.30;;
67074;SDS011;53990;50.334;18.640;2023-05-10T08:47:05;6.90;;;3.60;;
67074;SDS011;53990;50.334;18.640;2023-05-10T08:49:33;7.90;;;4.40;;
67074;SDS011;53990;50.334;18.640;2023-05-10T08:52:02;5.80;;;4.00;;
67074;SDS011;53990;50.334;18.640;2023-05-10T08:54:32;4.70;;;3.20;;
67074;SDS011;53990;50.334;18.640;2023-05-10T08:56:59;6.90;;;3.30;;
67074;SDS011;53990;50.334;18.640;2023-05-10T08:59:27;6.30;;;3.60;;
67074;SDS011;53990;50.334;18.640;2023-05-10T09:01:56;5.30;;;3.60;;
67074;SDS011;53990;50.334;18.640;2023-05-10T09:04:24;6.90;;;3.90;;
67074;SDS011;53990;50.334;18.640;2023-05-10T09:06:50;6.60;;;3.90;;
67074;SDS011;53990;50.334;18.640;2023-05-10T09:09:18;5.40;;;3.50;;
67074;SDS011;53990;50.334;18.640;2023-05-10T09:11:45;8.40;;;3.90;;
67074;SDS011;53990;50.334;18.640;2023-05-10T09:14:13;5.70;;;3.80;;
67074;SDS011;53990;50.334;18.640;2023-05-10T09:16:41;5.80;;;3.60;;
67074;SDS011;53990;50.334;18.640;2023-05-10T09:19:09;8.50;;;3.90;;
67074;SDS011;53990;50.334;18.640;2023-05-10T09:21:36;6.30;;;3.50;;
67074;SDS011;53990;50.334;18.640;2023-05-10T09:24:05;5.80;;;3.80;;
67074;SDS011;53990;50.334;18.640;2023-05-10T09:26:33;5.90;;;4.20;;
67074;SDS011;53990;50.334;18.640;2023-05-10T09:29:02;19.20;;;8.60;;
67074;SDS011;53990;50.334;18.640;2023-05-10T09:31:49;38.50;;;13.80;;
67074;SDS011;53990;50.334;18.640;2023-05-10T09:34:29;23.00;;;7.70;;
67074;SDS011;53990;50.334;18.640;2023-05-10T09:36:58;6.50;;;4.00;;
67074;SDS011;53990;50.334;18.640;2023-05-10T09:39:32;7.40;;;3.70;;
67074;SDS011;53990;50.334;18.640;2023-05-10T09:42:04;5.60;;;3.50;;
67074;SDS011;53990;50.334;18.640;2023-05-10T09:44:33;5.90;;;3.90;;
67074;SDS011;53990;50.334;18.640;2023-05-10T09:47:03;6.40;;;3.90;;
67074;SDS011;53990;50.334;18.640;2023-05-10T09:49:30;5.80;;;3.50;;
67074;SDS011;53990;50.334;18.640;2023-05-10T09:54:29;5.30;;;3.20;;
67074;SDS011;53990;50.334;18.640;2023-05-10T09:56:56;8.30;;;3.70;;
67074;SDS011;53990;50.334;18.640;2023-05-10T09:59:25;5.70;;;3.80;;
67074;SDS011;53990;50.334;18.640;2023-05-10T10:01:58;5.00;;;3.50;;
67074;SDS011;53990;50.334;18.640;2023-05-10T10:04:26;7.30;;;3.20;;
67074;SDS011;53990;50.334;18.640;2023-05-10T10:07:03;5.90;;;3.40;;
67074;SDS011;53990;50.334;18.640;2023-05-10T10:09:31;7.50;;;3.70;;
67074;SDS011;53990;50.334;18.640;2023-05-10T10:11:59;6.60;;;3.50;;
67074;SDS011;53990;50.334;18.640;2023-05-10T10:14:26;7.50;;;4.50;;
67074;SDS011;53990;50.334;18.640;2023-05-10T10:16:53;6.30;;;3.60;;
67074;SDS011;53990;50.334;18.640;2023-05-10T10:19:21;7.30;;;3.60;;
67074;SDS011;53990;50.334;18.640;2023-05-10T10:21:49;6.50;;;3.70;;
67074;SDS011;53990;50.334;18.640;2023-05-10T10:24:16;5.40;;;3.40;;
67074;SDS011;53990;50.334;18.640;2023-05-10T10:26:44;6.80;;;3.40;;
67074;SDS011;53990;50.334;18.640;2023-05-10T10:29:23;5.70;;;3.50;;
67074;SDS011;53990;50.334;18.640;2023-05-10T10:32:12;5.50;;;3.00;;
67074;SDS011;53990;50.334;18.640;2023-05-10T10:34:45;5.30;;;3.20;;
67074;SDS011;53990;50.334;18.640;2023-05-10T10:37:12;5.20;;;3.20;;
67074;SDS011;53990;50.334;18.640;2023-05-10T10:39:38;7.20;;;3.80;;
67074;SDS011;53990;50.334;18.640;2023-05-10T10:42:05;5.60;;;3.10;;
67074;SDS011;53990;50.334;18.640;2023-05-10T10:47:03;4.60;;;3.00;;
67074;SDS011;53990;50.334;18.640;2023-05-10T10:49:37;5.20;;;3.40;;
67074;SDS011;53990;50.334;18.640;2023-05-10T10:55:19;4.00;;;2.70;;
67074;SDS011;53990;50.334;18.640;2023-05-10T10:57:49;4.50;;;2.60;;
67074;SDS011;53990;50.334;18.640;2023-05-10T11:00:25;4.20;;;3.00;;
67074;SDS011;53990;50.334;18.640;2023-05-10T11:07:56;9.40;;;3.70;;
67074;SDS011;53990;50.334;18.640;2023-05-10T11:10:25;4.90;;;3.40;;
67074;SDS011;53990;50.334;18.640;2023-05-10T11:15:19;4.20;;;2.90;;
67074;SDS011;53990;50.334;18.640;2023-05-10T11:17:48;5.30;;;2.90;;
67074;SDS011;53990;50.334;18.640;2023-05-10T11:20:18;6.60;;;3.50;;
67074;SDS011;53990;50.334;18.640;2023-05-10T11:22:53;4.70;;;3.00;;
67074;SDS011;53990;50.334;18.640;2023-05-10T11:25:26;6.00;;;3.20;;
67074;SDS011;53990;50.334;18.640;2023-05-10T11:27:53;4.80;;;3.20;;
67074;SDS011;53990;50.334;18.640;2023-05-10T11:30:20;7.30;;;3.20;;
67074;SDS011;53990;50.334;18.640;2023-05-10T11:32:47;5.30;;;3.30;;
67074;SDS011;53990;50.334;18.640;2023-05-10T11:35:14;5.30;;;3.60;;
67074;SDS011;53990;50.334;18.640;2023-05-10T11:37:41;4.80;;;3.40;;
67074;SDS011;53990;50.334;18.640;2023-05-10T11:40:10;4.20;;;2.70;;
67074;SDS011;53990;50.334;18.640;2023-05-10T11:42:37;4.00;;;3.00;;
67074;SDS011;53990;50.334;18.640;2023-05-10T11:45:05;5.70;;;3.70;;
67074;SDS011;53990;50.334;18.640;2023-05-10T11:47:32;6.40;;;3.20;;
67074;SDS011;53990;50.334;18.640;2023-05-10T11:49:59;5.10;;;3.10;;
67074;SDS011;53990;50.334;18.640;2023-05-10T11:52:26;4.20;;;3.50;;
67074;SDS011;53990;50.334;18.640;2023-05-10T11:54:54;4.50;;;2.70;;
67074;SDS011;53990;50.334;18.640;2023-05-10T11:57:25;5.00;;;2.90;;
67074;SDS011;53990;50.334;18.640;2023-05-10T11:59:53;6.00;;;2.90;;
67074;SDS011;53990;50.334;18.640;2023-05-10T12:02:20;4.40;;;2.40;;
67074;SDS011;53990;50.334;18.640;2023-05-10T12:04:47;4.10;;;2.70;;
67074;SDS011;53990;50.334;18.640;2023-05-10T12:07:14;3.90;;;3.10;;
67074;SDS011;53990;50.334;18.640;2023-05-10T12:09:44;5.60;;;2.90;;
67074;SDS011;53990;50.334;18.640;2023-05-10T12:12:17;4.10;;;3.40;;
67074;SDS011;53990;50.334;18.640;2023-05-10T12:14:48;4.60;;;2.50;;
67074;SDS011;53990;50.334;18.640;2023-05-10T12:17:16;4.90;;;2.30;;
67074;SDS011;53990;50.334;18.640;2023-05-10T12:19:43;4.20;;;2.50;;
67074;SDS011;53990;50.334;18.640;2023-05-10T12:22:10;2.80;;;2.20;;
67074;SDS011;53990;50.334;18.640;2023-05-10T12:24:37;5.20;;;2.60;;
67074;SDS011;53990;50.334;18.640;2023-05-10T12:27:09;4.10;;;2.50;;
67074;SDS011;53990;50.334;18.640;2023-05-10T12:29:36;6.00;;;2.50;;
67074;SDS011;53990;50.334;18.640;2023-05-10T12:32:03;4.10;;;2.10;;
67074;SDS011;53990;50.334;18.640;2023-05-10T12:34:32;5.10;;;3.00;;
67074;SDS011;53990;50.334;18.640;2023-05-10T12:36:59;5.40;;;2.90;;
67074;SDS011;53990;50.334;18.640;2023-05-10T12:39:45;6.20;;;2.70;;
67074;SDS011;53990;50.334;18.640;2023-05-10T12:42:12;5.00;;;2.70;;
67074;SDS011;53990;50.334;18.640;2023-05-10T12:44:39;4.30;;;2.70;;
67074;SDS011;53990;50.334;18.640;2023-05-10T12:47:06;6.00;;;2.70;;
67074;SDS011;53990;50.334;18.640;2023-05-10T12:49:33;5.10;;;2.70;;
67074;SDS011;53990;50.334;18.640;2023-05-10T12:52:00;5.10;;;3.00;;
67074;SDS011;53990;50.334;18.640;2023-05-10T12:54:27;4.10;;;2.30;;
67074;SDS011;53990;50.334;18.640;2023-05-10T12:56:54;5.50;;;2.50;;
67074;SDS011;53990;50.334;18.640;2023-05-10T12:59:21;4.90;;;2.30;;
67074;SDS011;53990;50.334;18.640;2023-05-10T13:01:47;5.30;;;2.60;;
67074;SDS011;53990;50.334;18.640;2023-05-10T13:04:14;3.80;;;2.30;;
67074;SDS011;53990;50.334;18.640;2023-05-10T13:06:41;4.90;;;2.60;;
67074;SDS011;53990;50.334;18.640;2023-05-10T13:09:08;4.30;;;2.30;;
67074;SDS011;53990;50.334;18.640;2023-05-10T13:11:35;4.40;;;2.40;;
67074;SDS011;53990;50.334;18.640;2023-05-10T13:14:02;3.30;;;2.30;;
67074;SDS011;53990;50.334;18.640;2023-05-10T13:16:30;4.80;;;2.30;;
67074;SDS011;53990;50.334;18.640;2023-05-10T13:18:56;5.90;;;2.60;;
67074;SDS011;53990;50.334;18.640;2023-05-10T13:21:23;4.60;;;2.40;;
67074;SDS011;53990;50.334;18.640;2023-05-10T13:23:52;5.00;;;2.40;;
67074;SDS011;53990;50.334;18.640;2023-05-10T13:26:19;4.70;;;2.40;;
67074;SDS011;53990;50.334;18.640;2023-05-10T13:28:46;3.60;;;2.60;;
67074;SDS011;53990;50.334;18.640;2023-05-10T13:31:13;4.10;;;2.40;;
67074;SDS011;53990;50.334;18.640;2023-05-10T13:33:40;6.30;;;2.50;;
67074;SDS011;53990;50.334;18.640;2023-05-10T13:36:07;3.10;;;2.20;;
67074;SDS011;53990;50.334;18.640;2023-05-10T13:38:34;4.80;;;2.30;;
67074;SDS011;53990;50.334;18.640;2023-05-10T13:41:01;4.30;;;2.70;;
67074;SDS011;53990;50.334;18.640;2023-05-10T13:43:29;3.00;;;2.20;;
67074;SDS011;53990;50.334;18.640;2023-05-10T13:45:56;3.30;;;2.10;;
67074;SDS011;53990;50.334;18.640;2023-05-10T13:48:23;3.20;;;2.40;;
67074;SDS011;53990;50.334;18.640;2023-05-10T13:50:50;3.70;;;2.20;;
67074;SDS011;53990;50.334;18.640;2023-05-10T13:53:17;3.20;;;2.40;;
67074;SDS011;53990;50.334;18.640;2023-05-10T13:55:43;3.50;;;2.10;;
67074;SDS011;53990;50.334;18.640;2023-05-10T13:58:10;3.90;;;2.50;;
67074;SDS011;53990;50.334;18.640;2023-05-10T14:00:37;4.50;;;2.80;;
67074;SDS011;53990;50.334;18.640;2023-05-10T14:03:04;4.60;;;2.40;;
67074;SDS011;53990;50.334;18.640;2023-05-10T14:05:31;6.00;;;2.40;;
67074;SDS011;53990;50.334;18.640;2023-05-10T14:07:58;4.40;;;2.30;;
67074;SDS011;53990;50.334;18.640;2023-05-10T14:10:25;4.80;;;2.40;;
67074;SDS011;53990;50.334;18.640;2023-05-10T14:12:52;4.50;;;2.40;;
67074;SDS011;53990;50.334;18.640;2023-05-10T14:15:19;4.40;;;2.20;;
67074;SDS011;53990;50.334;18.640;2023-05-10T14:17:46;3.30;;;1.90;;
67074;SDS011;53990;50.334;18.640;2023-05-10T14:20:13;3.10;;;2.30;;
67074;SDS011;53990;50.334;18.640;2023-05-10T14:22:40;3.90;;;2.00;;
67074;SDS011;53990;50.334;18.640;2023-05-10T14:25:07;4.50;;;1.90;;
67074;SDS011;53990;50.334;18.640;2023-05-10T14:27:35;4.70;;;2.40;;
67074;SDS011;53990;50.334;18.640;2023-05-10T14:30:02;3.80;;;2.10;;
67074;SDS011;53990;50.334;18.640;2023-05-10T14:32:29;2.70;;;2.20;;
67074;SDS011;53990;50.334;18.640;2023-05-10T14:34:55;3.80;;;2.40;;
67074;SDS011;53990;50.334;18.640;2023-05-10T14:37:22;2.60;;;2.30;;
67074;SDS011;53990;50.334;18.640;2023-05-10T14:39:49;3.30;;;2.30;;
67074;SDS011;53990;50.334;18.640;2023-05-10T14:42:16;4.30;;;2.10;;
67074;SDS011;53990;50.334;18.640;2023-05-10T14:44:43;3.50;;;2.30;;
67074;SDS011;53990;50.334;18.640;2023-05-10T14:47:10;4.50;;;2.10;;
67074;SDS011;53990;50.334;18.640;2023-05-10T14:49:37;3.80;;;1.90;;
67074;SDS011;53990;50.334;18.640;2023-05-10T14:52:04;4.60;;;2.10;;
67074;SDS011;53990;50.334;18.640;2023-05-10T14:54:33;2.90;;;2.00;;
67074;SDS011;53990;50.334;18.640;2023-05-10T14:57:02;3.30;;;1.90;;
67074;SDS011;53990;50.334;18.640;2023-05-10T14:59:29;4.30;;;1.70;;
67074;SDS011;53990;50.334;18.640;2023-05-10T15:01:56;3.80;;;2.00;;
67074;SDS011;53990;50.334;18.640;2023-05-10T15:04:23;5.30;;;2.10;;